Time;durP1;ratioP1;P1;durP2;ratioP2;P2;SDS_P1;SDS_P2;PMS_P1;PMS_P2;Temp;Humidity;BMP_temperature;BMP_pressure;BME280_temperature;BME280_humidity;BME280_pressure;Samples;Min_cycle;Max_cycle;Signal;HPM_P1;HPM_P2
2022/09/29 00:01:29;;;;;;;0.30;0.30;;;;;;;17.38;66.43;98729.66;5007685;28;20060;-91
2022/09/29 00:03:56;;;;;;;0.57;0.57;;;;;;;16.90;66.64;98688.00;5009037;28;20038;-93
2022/09/29 00:06:21;;;;;;;0.43;0.43;;;;;;;17.08;65.92;98699.38;4990773;28;20037;-91
2022/09/29 00:08:47;;;;;;;0.52;0.52;;;;;;;17.35;66.12;98752.06;4990474;28;20569;-91
2022/09/29 00:11:17;;;;;;;0.20;0.20;;;;;;;17.42;65.75;98747.22;5008684;28;20484;-91
2022/09/29 00:13:45;;;;;;;0.10;0.10;;;;;;;17.22;66.07;98709.25;5008308;28;20037;-92
2022/09/29 00:16:11;;;;;;;0.32;0.32;;;;;;;16.99;65.48;98673.28;4991308;28;20104;-91
2022/09/29 00:18:37;;;;;;;0.10;0.10;;;;;;;17.31;65.63;98708.72;4990043;28;20132;-90
2022/09/29 00:21:07;;;;;;;0.32;0.32;;;;;;;17.48;65.47;98744.19;4990537;28;20046;-90
2022/09/29 00:23:34;;;;;;;1.13;1.00;;;;;;;17.35;65.70;98742.25;5007843;28;20868;-90
2022/09/29 00:26:05;;;;;;;0.73;0.73;;;;;;;17.48;65.09;98733.53;4990599;28;20120;-90
2022/09/29 00:28:32;;;;;;;0.30;0.30;;;;;;;17.45;65.20;98720.38;5007769;28;20041;-90
2022/09/29 00:31:00;;;;;;;0.82;0.82;;;;;;;16.99;65.98;98700.78;5007460;28;20068;-90
2022/09/29 00:33:29;;;;;;;1.02;0.95;;;;;;;17.02;66.34;98729.03;4990815;28;20542;-92
2022/09/29 00:36:21;;;;;;;0.65;0.63;;;;;;;17.20;66.40;98729.81;4990676;28;20042;-91
2022/09/29 00:38:48;;;;;;;0.25;0.25;;;;;;;16.82;66.80;98672.41;4987841;28;20050;-92
2022/09/29 00:41:17;;;;;;;0.52;0.38;;;;;;;16.84;67.12;98709.63;5004080;28;20347;-91
2022/09/29 00:43:53;;;;;;;0.75;0.75;;;;;;;16.91;67.57;98718.13;4995210;28;20037;-92
2022/09/29 00:46:48;;;;;;;0.80;0.80;;;;;;;17.05;67.18;98728.00;5006741;28;20503;-92
2022/09/29 00:49:20;;;;;;;;;;;;;;;16.93;67.15;98725.09;4983956;28;20416;-92
2022/09/29 00:51:52;;;;;;;0.35;0.35;;;;;;;16.67;67.57;98721.22;4990129;28;19917;-91
2022/09/29 00:54:18;;;;;;;0.10;0.10;;;;;;;16.56;66.85;98719.16;5006061;28;20068;-92
2022/09/29 00:56:45;;;;;;;1.58;1.48;;;;;;;16.36;66.68;98690.06;5007741;28;20040;-92
2022/09/29 00:59:16;;;;;;;1.08;0.80;;;;;;;16.70;66.56;98718.38;5008342;28;20030;-92
2022/09/29 01:01:42;;;;;;;0.10;0.10;;;;;;;16.55;66.64;98690.78;5007564;28;20037;-93
2022/09/29 01:04:13;;;;;;;0.10;0.10;;;;;;;16.46;66.56;98680.66;5007377;28;20041;-92
2022/09/29 01:06:44;;;;;;;0.43;0.43;;;;;;;16.55;66.77;98706.75;5007955;28;20569;-93
2022/09/29 01:09:14;;;;;;;0.17;0.17;;;;;;;16.47;67.22;98719.66;4987407;28;20145;-92
2022/09/29 01:11:41;;;;;;;0.20;0.20;;;;;;;16.34;67.12;98713.25;5005851;28;20037;-93
2022/09/29 01:14:09;;;;;;;0.30;0.30;;;;;;;16.42;66.73;98711.03;4991437;28;20062;-94
2022/09/29 01:16:36;;;;;;;0.20;0.20;;;;;;;16.34;66.81;98686.66;4990224;28;20175;-93
2022/09/29 01:19:07;;;;;;;0.82;0.80;;;;;;;16.42;66.69;98709.25;4987784;28;20062;-93
2022/09/29 01:22:06;;;;;;;1.42;1.33;;;;;;;16.43;66.53;98734.06;4989899;28;20123;-95
2022/09/29 01:24:50;;;;;;;0.22;0.22;;;;;;;16.50;66.40;98722.13;4988472;28;20124;-92
2022/09/29 01:27:52;;;;;;;1.48;1.38;;;;;;;16.44;66.82;98731.31;4988619;28;20042;-94
2022/09/29 01:30:44;;;;;;;0.40;0.40;;;;;;;16.47;66.60;98735.63;4989129;28;20038;-94
2022/09/29 01:33:37;;;;;;;0.20;0.20;;;;;;;16.50;67.05;98735.44;4965516;28;20509;-94
2022/09/29 01:36:33;;;;;;;0.20;0.20;;;;;;;16.18;67.16;98686.63;5012900;28;20033;-91
2022/09/29 01:39:12;;;;;;;0.57;0.57;;;;;;;16.44;66.78;98711.84;5010103;28;20113;-92
2022/09/29 01:41:44;;;;;;;0.70;0.70;;;;;;;16.51;67.42;98752.28;5009927;28;20428;-92
2022/09/29 01:44:22;;;;;;;0.20;0.20;;;;;;;16.54;67.65;98760.09;4993743;28;20057;-93
2022/09/29 01:46:55;;;;;;;1.17;1.08;;;;;;;16.23;67.46;98700.53;5010980;28;20092;-92
2022/09/29 01:49:24;;;;;;;0.43;0.40;;;;;;;16.40;67.70;98734.22;5011884;28;20033;-94
2022/09/29 01:52:07;;;;;;;0.82;0.82;;;;;;;16.49;67.88;98771.00;5011334;28;20104;-94
2022/09/29 01:54:58;;;;;;;0.20;0.20;;;;;;;16.40;67.85;98761.69;4993939;28;20026;-93
2022/09/29 01:57:54;;;;;;;1.38;1.27;;;;;;;15.63;70.97;98773.66;4993538;28;20335;-91
2022/09/29 02:00:22;;;;;;;0.28;0.28;;;;;;;15.28;72.08;98754.16;5011395;28;20037;-92
2022/09/29 02:03:26;;;;;;;4.72;3.55;;;;;;;15.31;72.85;98793.84;5011780;28;20030;-92
2022/09/29 02:06:01;;;;;;;5.30;2.27;;;;;;;15.07;73.28;98770.16;4963637;28;20578;-92
2022/09/29 02:08:45;;;;;;;0.20;0.20;;;;;;;15.07;73.66;98796.72;4992000;28;20031;-93
2022/09/29 02:11:12;;;;;;;2.10;0.98;;;;;;;14.95;73.83;98779.59;5010127;28;20041;-92
2022/09/29 02:13:48;;;;;;;0.85;0.85;;;;;;;15.24;73.41;98795.06;5007291;28;20050;-94
2022/09/29 02:16:16;;;;;;;;;;;;;;;15.30;72.47;98794.78;4975059;28;20052;-94
2022/09/29 02:18:51;;;;;;;0.20;0.20;;;;;;;14.94;72.25;98759.28;4994223;28;20054;-93
2022/09/29 02:21:17;;;;;;;;;;;;;;;15.03;73.83;98800.50;4993563;28;20042;-93
2022/09/29 02:23:42;;;;;;;0.30;0.30;;;;;;;15.14;72.98;98786.69;5010110;28;19924;-94
2022/09/29 02:26:11;;;;;;;1.52;1.42;;;;;;;15.24;72.65;98782.63;4993247;28;20125;-94
2022/09/29 02:28:40;;;;;;;1.55;1.45;;;;;;;15.33;72.78;98798.13;4995366;28;20042;-94
2022/09/29 02:31:07;;;;;;;0.25;0.25;;;;;;;15.36;72.67;98790.00;5014122;28;20038;-95
2022/09/29 02:33:33;;;;;;;2.72;2.58;;;;;;;15.58;71.65;98768.56;4994083;28;20037;-94
2022/09/29 02:36:03;;;;;;;0.73;0.73;;;;;;;15.79;71.10;98788.88;4993306;28;20488;-93
2022/09/29 02:38:43;;;;;;;1.90;1.45;;;;;;;15.69;71.16;98797.28;5012312;28;20036;-95
2022/09/29 02:41:12;;;;;;;1.30;1.27;;;;;;;15.79;69.67;98810.13;4977356;28;20034;-95
2022/09/29 02:44:15;;;;;;;0.70;0.55;;;;;;;15.61;70.82;98796.78;5005850;28;20050;-94
2022/09/29 02:46:59;;;;;;;0.50;0.50;;;;;;;15.66;71.04;98815.16;4988562;28;20038;-95
2022/09/29 02:50:06;;;;;;;1.77;1.63;;;;;;;15.12;72.29;98808.03;4975051;28;20046;-96
2022/09/29 02:53:06;;;;;;;0.35;0.35;;;;;;;15.05;72.78;98811.88;4972179;28;20034;-92
2022/09/29 02:56:02;;;;;;;0.30;0.30;;;;;;;15.19;73.18;98806.78;4990614;28;20038;-94
2022/09/29 02:58:31;;;;;;;0.45;0.45;;;;;;;15.37;72.92;98815.66;4990098;28;20138;-94
2022/09/29 03:00:58;;;;;;;0.30;0.30;;;;;;;15.21;72.26;98781.00;4990304;28;20511;-94
2022/09/29 03:03:23;;;;;;;0.73;0.65;;;;;;;14.99;73.15;98796.25;4974131;28;20133;-92
2022/09/29 03:05:50;;;;;;;1.20;1.20;;;;;;;15.16;73.78;98822.00;4990081;28;20177;-94
2022/09/29 03:08:17;;;;;;;0.30;0.30;;;;;;;14.85;75.12;98811.03;4989429;28;20500;-92
2022/09/29 03:10:42;;;;;;;1.02;1.02;;;;;;;14.46;77.25;98782.72;4988739;28;20046;-92
2022/09/29 03:13:08;;;;;;;0.30;0.30;;;;;;;14.30;78.51;98784.31;4988305;28;20061;-92
2022/09/29 03:15:33;;;;;;;0.30;0.30;;;;;;;14.29;78.95;98794.06;4989926;28;20034;-91
2022/09/29 03:17:59;;;;;;;0.55;0.55;;;;;;;14.44;78.76;98796.97;4990868;28;20037;-90
2022/09/29 03:20:25;;;;;;;;;;;;;;;14.60;79.64;98815.72;4995671;28;20049;-92
2022/09/29 03:22:55;;;;;;;0.20;0.20;;;;;;;14.55;78.93;98785.84;4991619;28;19914;-94
2022/09/29 03:25:22;;;;;;;2.38;1.08;;;;;;;14.82;78.21;98789.94;4989189;28;20049;-95
2022/09/29 03:27:49;;;;;;;0.40;0.40;;;;;;;14.92;77.26;98785.06;4998282;28;20041;-92
2022/09/29 03:30:14;;;;;;;1.60;1.50;;;;;;;14.93;76.48;98752.25;4988719;28;20455;-93
2022/09/29 03:32:42;;;;;;;1.10;1.10;;;;;;;15.00;76.56;98793.53;4989617;28;20038;-92
2022/09/29 03:35:08;;;;;;;0.88;0.88;;;;;;;15.03;76.40;98779.25;4986396;28;20072;-91
2022/09/29 03:37:33;;;;;;;0.55;0.55;;;;;;;15.01;74.26;98781.97;4987124;28;20038;-88
2022/09/29 03:39:59;;;;;;;0.45;0.45;;;;;;;14.77;75.19;98772.50;4989376;28;20030;-88
2022/09/29 03:42:27;;;;;;;1.15;1.15;;;;;;;14.72;75.57;98766.53;4994128;28;20056;-88
2022/09/29 03:44:52;;;;;;;0.75;0.68;;;;;;;14.65;76.27;98793.38;5008684;28;20044;-89
2022/09/29 03:47:18;;;;;;;0.20;0.20;;;;;;;14.81;76.12;98814.78;5008781;28;20411;-90
2022/09/29 03:49:43;;;;;;;0.65;0.65;;;;;;;14.67;76.04;98777.38;4989093;28;20041;-90
2022/09/29 03:52:09;;;;;;;;;;;;;;;15.08;76.36;98824.19;5018352;28;20042;-91
2022/09/29 03:54:34;;;;;;;0.20;0.20;;;;;;;15.00;76.03;98800.63;5008908;28;19929;-90
2022/09/29 03:56:59;;;;;;;;;;;;;;;15.07;75.95;98825.09;5022178;28;20038;-89
2022/09/29 03:59:25;;;;;;;;;;;;;;;14.93;76.73;98826.59;5006308;28;20003;-88
2022/09/29 04:01:50;;;;;;;;;;;;;;;15.08;76.43;98826.84;5008967;28;20363;-91
2022/09/29 04:04:16;;;;;;;0.43;0.43;;;;;;;14.85;75.35;98778.31;5008568;28;19975;-91
2022/09/29 04:06:42;;;;;;;1.80;1.42;;;;;;;14.70;76.20;98765.75;5009525;28;20050;-93
2022/09/29 04:09:09;;;;;;;1.30;1.27;;;;;;;14.45;75.38;98751.78;4997995;28;20034;-94
2022/09/29 04:11:36;;;;;;;0.50;0.50;;;;;;;14.41;76.70;98787.38;4996797;28;20058;-90
2022/09/29 04:14:02;;;;;;;0.65;0.65;;;;;;;14.50;76.73;98765.72;5011244;28;20049;-89
2022/09/29 04:16:28;;;;;;;0.30;0.30;;;;;;;14.58;77.32;98770.69;5026286;28;20041;-92
2022/09/29 04:19:05;;;;;;;2.17;2.05;;;;;;;14.71;76.31;98752.41;5001422;28;20037;-96
2022/09/29 04:21:34;;;;;;;0.52;0.52;;;;;;;14.73;76.03;98758.50;5024465;28;20040;-96
2022/09/29 04:24:00;;;;;;;0.50;0.50;;;;;;;14.74;75.88;98760.22;4992355;28;20409;-94
2022/09/29 04:26:26;;;;;;;1.45;0.85;;;;;;;14.89;75.22;98779.03;4992171;28;20037;-93
2022/09/29 04:28:55;;;;;;;0.28;0.28;;;;;;;15.29;75.56;98835.56;4993439;28;20025;-93
2022/09/29 04:31:20;;;;;;;1.00;0.73;;;;;;;15.04;75.53;98808.38;4993315;28;20042;-94
2022/09/29 04:33:47;;;;;;;0.20;0.20;;;;;;;15.58;75.15;98855.41;4993303;28;20389;-92
2022/09/29 04:36:12;;;;;;;0.20;0.20;;;;;;;15.28;74.48;98809.94;5010913;28;20088;-92
2022/09/29 04:38:38;;;;;;;0.63;0.63;;;;;;;15.38;74.21;98837.75;5011520;28;20443;-92
2022/09/29 04:41:03;;;;;;;0.57;0.57;;;;;;;15.47;74.27;98842.63;5010453;28;20428;-87
2022/09/29 04:43:29;;;;;;;0.55;0.55;;;;;;;15.30;73.94;98827.50;5010911;28;20425;-92
2022/09/29 04:46:00;;;;;;;;;;;;;;;15.59;74.39;98875.75;5011253;28;20037;-90
2022/09/29 04:48:25;;;;;;;0.82;0.82;;;;;;;15.44;74.74;98845.44;5010087;28;19917;-90
2022/09/29 04:50:51;;;;;;;0.90;0.90;;;;;;;15.35;75.36;98862.72;5012992;28;20028;-91
2022/09/29 04:53:17;;;;;;;1.38;0.95;;;;;;;15.50;75.26;98862.91;4989696;28;20030;-92
2022/09/29 04:55:43;;;;;;;0.65;0.65;;;;;;;15.60;75.49;98888.09;5003329;28;20049;-90
2022/09/29 04:58:08;;;;;;;0.40;0.40;;;;;;;15.28;76.17;98876.34;5009591;28;20515;-91
2022/09/29 05:00:34;;;;;;;0.35;0.35;;;;;;;15.24;76.79;98877.44;5009733;28;20483;-90
2022/09/29 05:02:59;;;;;;;1.90;1.80;;;;;;;15.03;77.48;98862.41;5009232;28;20392;-90
2022/09/29 05:05:25;;;;;;;2.38;0.75;;;;;;;14.96;77.24;98828.25;5008722;28;20044;-88
2022/09/29 05:07:51;;;;;;;1.42;1.33;;;;;;;15.42;77.66;98894.31;5006890;28;20120;-89
2022/09/29 05:10:16;;;;;;;;;;;;;;;15.72;76.50;98887.50;4989227;28;20026;-92
2022/09/29 05:12:47;;;;;;;0.90;0.90;;;;;;;15.65;76.13;98879.91;5008354;28;20425;-93
2022/09/29 05:15:16;;;;;;;1.30;1.20;;;;;;;15.79;75.68;98877.47;4990367;28;20043;-93
2022/09/29 05:17:41;;;;;;;0.20;0.20;;;;;;;15.78;75.43;98894.34;5007147;28;20492;-90
2022/09/29 05:20:07;;;;;;;3.63;2.25;;;;;;;15.53;75.25;98866.25;5007378;28;20044;-89
2022/09/29 05:22:33;;;;;;;;;;;;;;;15.67;75.77;98899.28;5005556;28;20460;-88
2022/09/29 05:24:58;;;;;;;1.73;1.40;;;;;;;15.87;74.85;98899.19;5007577;28;19929;-88
2022/09/29 05:27:23;;;;;;;6.93;2.35;;;;;;;15.83;75.56;98910.91;5007297;28;20099;-89
2022/09/29 05:29:49;;;;;;;2.30;1.75;;;;;;;15.83;74.88;98886.97;5006591;28;20022;-89
2022/09/29 05:32:15;;;;;;;0.88;0.88;;;;;;;16.07;74.63;98902.69;5007498;28;20034;-89
2022/09/29 05:34:40;;;;;;;;;;;;;;;16.36;73.81;98909.19;5008044;28;20030;-88
2022/09/29 05:37:06;;;;;;;2.20;1.65;;;;;;;16.25;72.71;98880.47;5006523;28;19913;-89
2022/09/29 05:39:33;;;;;;;0.75;0.75;;;;;;;16.49;72.67;98897.91;5007142;28;20038;-89
2022/09/29 05:42:05;;;;;;;0.20;0.20;;;;;;;16.20;72.55;98865.66;5007105;28;20499;-89
2022/09/29 05:44:30;;;;;;;0.55;0.55;;;;;;;16.46;72.22;98888.28;5006768;28;20034;-87
2022/09/29 05:46:56;;;;;;;0.85;0.85;;;;;;;16.39;72.05;98884.19;5006448;28;20041;-88
2022/09/29 05:49:22;;;;;;;2.10;1.58;;;;;;;16.72;70.98;98865.59;5006155;28;20038;-88
2022/09/29 05:51:47;;;;;;;0.20;0.20;;;;;;;16.73;70.33;98872.66;5006594;28;20061;-89
2022/09/29 05:54:13;;;;;;;0.95;0.93;;;;;;;16.87;70.31;98879.94;5006496;28;20034;-89
2022/09/29 05:56:38;;;;;;;1.73;1.08;;;;;;;16.95;69.87;98904.34;5006221;28;20057;-90
2022/09/29 05:59:04;;;;;;;0.65;0.65;;;;;;;17.21;68.81;98880.75;5006973;28;20042;-88
2022/09/29 06:01:31;;;;;;;0.90;0.90;;;;;;;17.80;67.33;98889.00;5005859;28;20042;-89
2022/09/29 06:03:57;;;;;;;0.47;0.47;;;;;;;17.95;66.12;98895.28;5005070;28;20038;-90
2022/09/29 06:06:25;;;;;;;0.20;0.20;;;;;;;18.29;65.27;98881.75;5006152;28;20041;-88
2022/09/29 06:08:51;;;;;;;0.38;0.38;;;;;;;18.31;65.02;98871.88;4988307;28;20053;-90
2022/09/29 06:11:22;;;;;;;0.38;0.38;;;;;;;18.63;64.43;98890.41;5005723;28;20900;-88
2022/09/29 06:13:50;;;;;;;0.20;0.20;;;;;;;18.88;62.50;98863.09;4987186;28;20057;-89
2022/09/29 06:16:18;;;;;;;1.17;1.08;;;;;;;19.05;61.53;98862.03;4994246;28;20056;-89
2022/09/29 06:18:44;;;;;;;0.90;0.85;;;;;;;19.04;60.87;98839.75;5006494;28;20088;-88
2022/09/29 06:21:13;;;;;;;0.10;0.10;;;;;;;19.41;60.76;98850.78;5006846;28;20061;-88
2022/09/29 06:23:39;;;;;;;0.75;0.75;;;;;;;19.80;60.80;98856.31;5007650;28;20042;-87
2022/09/29 06:26:10;;;;;;;2.88;1.55;;;;;;;20.17;59.84;98846.69;5010678;28;20083;-89
2022/09/29 06:28:35;;;;;;;2.20;1.02;;;;;;;20.69;59.13;98852.09;5011327;28;20041;-89
2022/09/29 06:31:04;;;;;;;0.90;0.90;;;;;;;21.18;56.41;98859.34;5010237;28;20125;-88
2022/09/29 06:33:31;;;;;;;2.40;1.92;;;;;;;21.40;56.21;98865.81;4992142;28;20041;-88
2022/09/29 06:38:41;;;;;;;0.22;0.22;;;;;;;21.58;53.40;98842.16;5020947;28;20079;-87
2022/09/29 06:41:07;;;;;;;0.98;0.50;;;;;;;21.42;53.23;98837.91;5021470;28;20041;-89
2022/09/29 06:43:34;;;;;;;1.35;0.55;;;;;;;21.79;53.09;98870.09;5020543;28;20053;-90
2022/09/29 06:45:59;;;;;;;0.30;0.30;;;;;;;21.89;52.79;98847.94;5014237;28;20037;-88
2022/09/29 06:48:25;;;;;;;1.70;0.73;;;;;;;22.32;52.07;98867.06;5010915;28;20022;-86
2022/09/29 06:50:50;;;;;;;3.03;0.93;;;;;;;22.21;53.24;98869.66;5009075;28;20060;-88
2022/09/29 06:53:16;;;;;;;28.33;2.75;;;;;;;22.21;53.05;98831.22;5010709;28;20033;-87
2022/09/29 06:55:41;;;;;;;0.32;0.32;;;;;;;22.60;52.95;98834.47;5010766;28;20049;-88
2022/09/29 06:58:07;;;;;;;0.30;0.30;;;;;;;22.92;49.41;98861.50;5011282;28;20821;-87
2022/09/29 07:00:33;;;;;;;1.42;1.25;;;;;;;23.29;49.23;98869.34;5009922;28;20465;-87
2022/09/29 07:02:59;;;;;;;3.92;2.22;;;;;;;23.22;48.34;98843.94;5010611;28;20033;-88
2022/09/29 07:05:25;;;;;;;2.90;2.63;;;;;;;23.22;48.07;98866.31;5010945;28;20057;-88
2022/09/29 07:07:50;;;;;;;1.33;1.23;;;;;;;22.91;49.12;98816.78;5010580;28;20123;-88
2022/09/29 07:10:16;;;;;;;1.42;1.33;;;;;;;23.34;49.12;98844.75;5010295;28;20420;-89
2022/09/29 07:12:45;;;;;;;1.98;1.58;;;;;;;23.44;48.65;98824.19;5009925;28;20032;-90
2022/09/29 07:15:12;;;;;;;1.58;1.48;;;;;;;24.02;48.52;98863.44;5009539;28;20412;-90
2022/09/29 07:17:38;;;;;;;2.80;2.58;;;;;;;23.87;46.73;98820.66;4992449;28;20171;-88
2022/09/29 07:20:04;;;;;;;5.30;4.88;;;;;;;23.68;48.25;98844.69;5009963;28;20124;-87
2022/09/29 07:22:29;;;;;;;3.55;3.25;;;;;;;24.39;47.45;98877.38;5007953;28;20041;-90
2022/09/29 07:24:55;;;;;;;1.08;1.05;;;;;;;24.15;46.47;98834.50;4991706;28;20037;-90
2022/09/29 07:27:23;;;;;;;13.07;2.25;;;;;;;24.06;44.84;98868.44;5008986;28;20038;-89
2022/09/29 07:29:51;;;;;;;1.02;0.88;;;;;;;23.99;45.54;98866.38;5009148;28;20037;-91
2022/09/29 07:32:17;;;;;;;3.88;1.90;;;;;;;24.33;47.35;98860.84;4992627;28;20046;-89
2022/09/29 07:34:43;;;;;;;0.20;0.20;;;;;;;24.35;47.54;98864.28;5009154;28;20038;-88
2022/09/29 07:37:09;;;;;;;0.05;0.05;;;;;;;24.10;47.32;98856.44;5009896;28;20044;-89
2022/09/29 07:39:34;;;;;;;1.48;1.13;;;;;;;24.09;45.83;98854.72;5009212;28;20045;-88
2022/09/29 07:42:00;;;;;;;0.20;0.20;;;;;;;24.74;44.55;98857.31;5008570;28;20034;-89
2022/09/29 07:44:25;;;;;;;0.20;0.20;;;;;;;24.97;44.58;98843.66;4991459;28;20037;-88
2022/09/29 07:46:51;;;;;;;0.73;0.73;;;;;;;25.34;45.31;98883.59;5009164;28;20025;-88
2022/09/29 07:49:17;;;;;;;0.00;0.00;;;;;;;25.00;44.20;98870.34;5008836;28;20510;-89
2022/09/29 07:51:42;;;;;;;2.55;0.55;;;;;;;24.89;44.70;98843.50;5008777;28;20042;-88
2022/09/29 07:54:08;;;;;;;0.32;0.32;;;;;;;24.76;43.59;98852.66;5009081;28;20435;-89
2022/09/29 07:56:34;;;;;;;0.10;0.10;;;;;;;25.28;43.51;98881.41;5008484;28;20113;-89
2022/09/29 07:59:01;;;;;;;0.20;0.20;;;;;;;24.86;43.08;98852.69;5008996;28;20033;-88
2022/09/29 08:01:27;;;;;;;0.05;0.05;;;;;;;24.83;45.17;98858.34;5008691;28;20480;-88
2022/09/29 08:03:54;;;;;;;6.22;1.80;;;;;;;24.69;44.28;98846.06;5008964;28;20064;-88
2022/09/29 08:06:25;;;;;;;0.98;0.63;;;;;;;24.34;44.68;98854.47;5008783;28;20542;-88
2022/09/29 08:08:51;;;;;;;0.13;0.13;;;;;;;24.67;45.22;98897.44;5008571;28;20088;-89
2022/09/29 08:11:21;;;;;;;1.40;1.13;;;;;;;24.76;47.72;98909.28;5008713;28;20033;-88
2022/09/29 08:13:49;;;;;;;1.42;1.33;;;;;;;25.00;45.41;98886.53;5008354;28;20022;-88
2022/09/29 08:16:15;;;;;;;0.20;0.20;;;;;;;24.88;44.22;98882.22;5008188;28;20097;-88
2022/09/29 08:18:41;;;;;;;0.22;0.20;;;;;;;25.01;45.17;98880.16;5008641;28;20482;-88
2022/09/29 08:21:07;;;;;;;3.65;0.50;;;;;;;24.49;44.62;98854.00;5008526;28;20034;-88
2022/09/29 08:23:37;;;;;;;0.60;0.60;;;;;;;24.83;45.24;98872.69;5007990;28;20401;-88
2022/09/29 08:26:06;;;;;;;0.00;0.00;;;;;;;25.23;43.99;98895.31;5008012;28;20041;-89
2022/09/29 08:28:33;;;;;;;1.27;0.93;;;;;;;25.59;43.70;98902.97;5008534;28;20414;-87
2022/09/29 08:31:07;;;;;;;1.00;0.80;;;;;;;25.15;44.15;98898.69;5008183;28;20491;-88
2022/09/29 08:33:34;;;;;;;0.17;0.17;;;;;;;25.08;44.34;98892.09;5008403;28;20084;-88
2022/09/29 08:36:00;;;;;;;0.47;0.47;;;;;;;25.23;44.98;98884.50;5008583;28;20034;-89
2022/09/29 08:38:26;;;;;;;2.65;1.48;;;;;;;25.05;44.82;98864.56;5007927;28;20033;-87
2022/09/29 08:40:55;;;;;;;0.93;0.75;;;;;;;24.89;44.35;98862.38;5008197;28;20048;-87
2022/09/29 08:43:42;;;;;;;0.55;0.55;;;;;;;25.23;44.78;98894.47;5008930;28;20046;-88
2022/09/29 08:46:23;;;;;;;0.40;0.40;;;;;;;25.36;44.59;98871.66;5008023;28;20048;-87
2022/09/29 08:48:51;;;;;;;1.48;1.38;;;;;;;25.37;44.72;98867.13;5006062;28;20037;-87
2022/09/29 08:51:38;;;;;;;4.22;0.88;;;;;;;25.49;43.25;98882.22;5008090;28;20026;-89
2022/09/29 08:54:16;;;;;;;0.45;0.45;;;;;;;25.05;43.99;98891.53;5007777;28;20030;-90
2022/09/29 08:56:41;;;;;;;0.10;0.10;;;;;;;25.19;44.80;98885.75;4990068;28;20042;-88
2022/09/29 08:59:10;;;;;;;0.38;0.38;;;;;;;25.34;42.93;98897.09;5008026;28;20041;-88
2022/09/29 09:02:07;;;;;;;0.40;0.40;;;;;;;25.71;43.22;98901.88;5007363;28;20034;-89
2022/09/29 09:04:42;;;;;;;0.30;0.30;;;;;;;25.48;42.01;98903.94;4974318;28;20153;-87
2022/09/29 09:07:28;;;;;;;0.57;0.57;;;;;;;25.20;42.80;98871.28;5007561;28;20412;-88
2022/09/29 09:09:55;;;;;;;0.28;0.28;;;;;;;25.13;43.61;98903.38;5006304;28;20483;-88
2022/09/29 09:12:23;;;;;;;0.55;0.55;;;;;;;25.35;43.62;98896.09;5007604;28;20034;-88
2022/09/29 09:15:07;;;;;;;0.52;0.52;;;;;;;25.38;43.78;98901.22;5007776;28;20034;-88
2022/09/29 09:17:44;;;;;;;0.22;0.22;;;;;;;25.66;43.84;98901.44;5008170;28;20038;-88
2022/09/29 09:20:39;;;;;;;1.17;1.08;;;;;;;25.88;43.12;98890.38;5007215;28;20065;-88
2022/09/29 09:23:07;;;;;;;1.60;1.50;;;;;;;25.95;41.86;98892.50;5007397;28;20044;-89
2022/09/29 09:25:38;;;;;;;1.15;1.05;;;;;;;25.48;41.26;98863.44;5007444;28;20052;-90
2022/09/29 09:28:29;;;;;;;2.58;1.17;;;;;;;25.74;42.16;98855.69;5007696;28;20034;-89
2022/09/29 09:31:14;;;;;;;0.98;0.90;;;;;;;25.83;41.55;98849.44;5007806;28;20040;-88
2022/09/29 09:33:49;;;;;;;0.00;0.00;;;;;;;26.11;40.91;98854.19;5007431;28;20041;-89
2022/09/29 09:36:36;;;;;;;0.30;0.30;;;;;;;25.87;39.91;98872.47;5008054;28;20033;-89
2022/09/29 09:39:17;;;;;;;0.40;0.40;;;;;;;26.12;39.38;98861.28;5007525;28;20034;-88
2022/09/29 09:41:46;;;;;;;5.10;0.60;;;;;;;26.35;39.84;98870.78;5007365;28;20076;-90
2022/09/29 09:44:21;;;;;;;6.55;0.95;;;;;;;26.20;40.25;98818.19;5007971;28;20239;-88
2022/09/29 09:46:51;;;;;;;0.07;0.07;;;;;;;26.19;40.61;98836.22;5008578;28;20026;-90
2022/09/29 09:49:25;;;;;;;0.20;0.20;;;;;;;26.32;40.34;98848.59;5007838;28;20026;-90
2022/09/29 09:52:08;;;;;;;0.17;0.17;;;;;;;26.48;41.18;98856.09;5009445;28;20041;-93
2022/09/29 09:54:58;;;;;;;4.47;1.90;;;;;;;26.63;40.59;98851.94;5010817;28;20145;-89
2022/09/29 09:58:14;;;;;;;0.40;0.40;;;;;;;26.73;40.02;98852.81;5011891;28;20538;-87
2022/09/29 10:00:46;;;;;;;1.60;1.45;;;;;;;26.74;40.26;98823.91;4954738;29;20071;-88
2022/09/29 10:03:35;;;;;;;0.50;0.50;;;;;;;26.97;40.27;98846.91;5004803;28;20038;-88
2022/09/29 10:06:01;;;;;;;0.10;0.10;;;;;;;26.79;39.70;98843.25;5014375;28;20037;-88
2022/09/29 10:08:39;;;;;;;0.13;0.13;;;;;;;26.78;39.40;98845.09;5014772;28;20025;-88
2022/09/29 10:11:20;;;;;;;2.28;0.88;;;;;;;26.79;39.46;98837.84;4996768;28;20029;-88
2022/09/29 10:13:47;;;;;;;0.80;0.35;;;;;;;27.14;39.04;98844.38;5014963;28;20041;-88
2022/09/29 10:16:16;;;;;;;0.50;0.47;;;;;;;27.33;38.97;98866.00;5013727;28;20030;-90
2022/09/29 10:18:45;;;;;;;0.38;0.32;;;;;;;27.19;38.50;98852.06;5014106;28;20955;-89
2022/09/29 10:21:41;;;;;;;0.10;0.10;;;;;;;26.96;38.97;98855.16;4996316;28;20108;-89
2022/09/29 10:24:29;;;;;;;0.40;0.40;;;;;;;27.24;39.29;98868.72;5000916;28;20044;-90
2022/09/29 10:26:58;;;;;;;0.68;0.68;;;;;;;27.41;38.28;98857.13;4995270;28;20946;-89
2022/09/29 10:29:32;;;;;;;0.70;0.70;;;;;;;27.13;38.59;98861.66;5012800;28;20030;-89
2022/09/29 10:32:01;;;;;;;0.27;0.27;;;;;;;27.40;37.87;98854.56;5013045;28;20061;-90
2022/09/29 10:34:28;;;;;;;1.17;0.82;;;;;;;27.49;37.66;98830.13;5012693;28;20034;-89
2022/09/29 10:37:01;;;;;;;0.30;0.30;;;;;;;27.65;38.11;98872.81;5012378;28;20034;-90
2022/09/29 10:39:29;;;;;;;12.80;0.88;;;;;;;27.64;37.90;98865.66;5012496;28;20046;-90
2022/09/29 10:41:55;;;;;;;4.55;0.73;;;;;;;27.36;38.83;98817.94;5012168;28;20113;-90
2022/09/29 10:44:21;;;;;;;0.05;0.05;;;;;;;27.09;39.92;98819.63;5012703;28;20026;-88
2022/09/29 10:46:54;;;;;;;0.10;0.10;;;;;;;26.74;40.40;98818.50;5013414;28;20061;-92
2022/09/29 10:49:22;;;;;;;0.65;0.55;;;;;;;27.21;39.75;98831.13;5011626;28;20054;-92
2022/09/29 10:52:21;;;;;;;0.52;0.52;;;;;;;27.45;39.42;98833.28;5012216;28;20492;-91
2022/09/29 10:54:58;;;;;;;0.50;0.50;;;;;;;27.14;39.64;98807.38;5010873;28;20041;-92
2022/09/29 10:57:29;;;;;;;1.00;0.88;;;;;;;27.03;39.43;98798.59;5012635;28;20029;-90
2022/09/29 10:59:56;;;;;;;1.15;1.02;;;;;;;27.22;40.62;98827.41;5012349;28;20125;-92
2022/09/29 11:02:24;;;;;;;1.55;1.42;;;;;;;27.07;40.13;98836.03;5012811;28;20040;-90
2022/09/29 11:04:52;;;;;;;2.92;1.83;;;;;;;27.29;39.96;98798.72;5013049;28;20084;-91
2022/09/29 11:07:18;;;;;;;1.58;1.48;;;;;;;27.65;39.95;98815.03;4994445;28;20057;-90
2022/09/29 11:09:44;;;;;;;0.25;0.25;;;;;;;27.60;40.32;98809.25;5012610;28;20042;-91
2022/09/29 11:12:28;;;;;;;0.68;0.57;;;;;;;27.84;38.74;98831.16;4995313;28;20084;-91
2022/09/29 11:14:54;;;;;;;0.00;0.00;;;;;;;27.40;39.17;98785.00;5012850;28;20219;-91
2022/09/29 11:17:23;;;;;;;2.53;1.85;;;;;;;27.25;39.71;98816.25;5012687;28;20110;-91
2022/09/29 11:19:51;;;;;;;4.32;0.68;;;;;;;27.47;40.01;98798.81;5012972;28;20088;-91
2022/09/29 11:22:31;;;;;;;0.63;0.63;;;;;;;27.62;38.04;98763.88;5013879;28;20109;-89
2022/09/29 11:25:15;;;;;;;0.32;0.32;;;;;;;27.80;39.11;98794.53;5011935;28;20030;-89
2022/09/29 11:27:50;;;;;;;1.55;0.85;;;;;;;27.84;38.23;98793.22;5012910;28;20037;-90
2022/09/29 11:30:39;;;;;;;0.80;0.65;;;;;;;27.94;38.54;98785.00;5012789;28;20036;-90
2022/09/29 11:33:14;;;;;;;0.17;0.17;;;;;;;28.01;37.25;98766.31;5012163;28;20524;-90
2022/09/29 11:36:02;;;;;;;0.77;0.77;;;;;;;28.22;38.04;98803.91;5012778;28;20034;-89
2022/09/29 11:38:43;;;;;;;9.18;0.28;;;;;;;28.16;37.70;98805.41;5011926;28;20125;-91
2022/09/29 11:41:46;;;;;;;0.43;0.43;;;;;;;28.17;37.02;98792.69;5011474;28;20030;-90
2022/09/29 11:44:33;;;;;;;1.70;1.00;;;;;;;28.18;37.46;98799.81;5011344;28;20054;-91
2022/09/29 11:47:41;;;;;;;1.10;1.00;;;;;;;28.03;36.76;98772.41;5011652;28;20084;-91
2022/09/29 11:50:53;;;;;;;0.20;0.20;;;;;;;28.08;36.56;98780.91;5011161;28;20033;-91
2022/09/29 11:53:41;;;;;;;0.28;0.28;;;;;;;27.82;37.04;98780.84;4966213;28;20061;-89
2022/09/29 11:56:39;;;;;;;0.25;0.25;;;;;;;27.84;36.83;98784.25;5011687;28;20034;-89
2022/09/29 11:59:18;;;;;;;0.15;0.13;;;;;;;27.84;36.45;98746.31;5011370;28;20026;-90
2022/09/29 12:02:05;;;;;;;0.10;0.10;;;;;;;27.99;36.12;98774.59;4993623;28;20038;-89